sensor_id;sensor_type;location;lat;lon;timestamp;temperature;humidity
78731;SHT31;68055;51.978;5.658;2024-03-25T00:00:06;8.3;70.2
78731;SHT31;68055;51.978;5.658;2024-03-25T00:02:37;8.3;70.6
78731;SHT31;68055;51.978;5.658;2024-03-25T00:05:06;8.3;70.5
78731;SHT31;68055;51.978;5.658;2024-03-25T00:07:38;8.2;70.4
78731;SHT31;68055;51.978;5.658;2024-03-25T00:10:07;8.2;70.6
78731;SHT31;68055;51.978;5.658;2024-03-25T00:12:36;8.2;70.3
78731;SHT31;68055;51.978;5.658;2024-03-25T00:15:05;8.2;70.7
78731;SHT31;68055;51.978;5.658;2024-03-25T00:17:36;8.2;70.7
78731;SHT31;68055;51.978;5.658;2024-03-25T00:20:05;8.1;70.6
78731;SHT31;68055;51.978;5.658;2024-03-25T00:22:36;8.1;70.7
78731;SHT31;68055;51.978;5.658;2024-03-25T00:25:05;8.1;70.8
78731;SHT31;68055;51.978;5.658;2024-03-25T00:27:34;8.1;71.1
78731;SHT31;68055;51.978;5.658;2024-03-25T00:30:03;8.1;71.1
78731;SHT31;68055;51.978;5.658;2024-03-25T00:32:32;8.1;71.1
78731;SHT31;68055;51.978;5.658;2024-03-25T00:35:00;8.1;71.0
78731;SHT31;68055;51.978;5.658;2024-03-25T00:37:29;8.0;71.1
78731;SHT31;68055;51.978;5.658;2024-03-25T00:39:57;8.0;70.9
78731;SHT31;68055;51.978;5.658;2024-03-25T00:42:26;8.0;70.9
78731;SHT31;68055;51.978;5.658;2024-03-25T00:44:55;8.0;71.0
78731;SHT31;68055;51.978;5.658;2024-03-25T00:47:23;8.0;71.1
78731;SHT31;68055;51.978;5.658;2024-03-25T00:49:52;8.0;71.4
78731;SHT31;68055;51.978;5.658;2024-03-25T00:52:20;8.0;71.4
78731;SHT31;68055;51.978;5.658;2024-03-25T00:54:49;8.0;71.1
78731;SHT31;68055;51.978;5.658;2024-03-25T00:57:20;8.0;71.1
78731;SHT31;68055;51.978;5.658;2024-03-25T00:59:48;8.0;70.7
78731;SHT31;68055;51.978;5.658;2024-03-25T01:02:16;8.0;71.4
78731;SHT31;68055;51.978;5.658;2024-03-25T01:04:45;8.0;71.2
78731;SHT31;68055;51.978;5.658;2024-03-25T01:07:14;7.9;71.2
78731;SHT31;68055;51.978;5.658;2024-03-25T01:09:42;7.9;70.4
78731;SHT31;68055;51.978;5.658;2024-03-25T01:12:11;7.9;71.2
78731;SHT31;68055;51.978;5.658;2024-03-25T01:14:39;7.9;71.1
78731;SHT31;68055;51.978;5.658;2024-03-25T01:17:10;7.9;71.2
78731;SHT31;68055;51.978;5.658;2024-03-25T01:19:39;7.9;70.8
78731;SHT31;68055;51.978;5.658;2024-03-25T01:22:07;7.9;71.1
78731;SHT31;68055;51.978;5.658;2024-03-25T01:24:36;7.9;71.1
78731;SHT31;68055;51.978;5.658;2024-03-25T01:27:04;7.8;70.6
78731;SHT31;68055;51.978;5.658;2024-03-25T01:29:33;7.8;70.9
78731;SHT31;68055;51.978;5.658;2024-03-25T01:32:01;7.8;71.0
78731;SHT31;68055;51.978;5.658;2024-03-25T01:34:31;7.8;71.1
78731;SHT31;68055;51.978;5.658;2024-03-25T01:37:00;7.8;71.3
78731;SHT31;68055;51.978;5.658;2024-03-25T01:39:30;7.8;71.4
78731;SHT31;68055;51.978;5.658;2024-03-25T01:41:58;7.7;71.1
78731;SHT31;68055;51.978;5.658;2024-03-25T01:44:27;7.7;71.1
78731;SHT31;68055;51.978;5.658;2024-03-25T01:46:55;7.7;71.1
78731;SHT31;68055;51.978;5.658;2024-03-25T01:49:24;7.7;71.0
78731;SHT31;68055;51.978;5.658;2024-03-25T01:51:53;7.7;70.8
78731;SHT31;68055;51.978;5.658;2024-03-25T01:54:22;7.7;71.1
78731;SHT31;68055;51.978;5.658;2024-03-25T01:56:50;7.7;71.4
78731;SHT31;68055;51.978;5.658;2024-03-25T01:59:21;7.7;71.4
78731;SHT31;68055;51.978;5.658;2024-03-25T02:01:52;7.6;71.1
78731;SHT31;68055;51.978;5.658;2024-03-25T02:04:21;7.6;71.3
78731;SHT31;68055;51.978;5.658;2024-03-25T02:06:52;7.6;71.3
78731;SHT31;68055;51.978;5.658;2024-03-25T02:09:24;7.6;71.4
78731;SHT31;68055;51.978;5.658;2024-03-25T02:11:55;7.6;71.2
78731;SHT31;68055;51.978;5.658;2024-03-25T02:14:24;7.6;71.3
78731;SHT31;68055;51.978;5.658;2024-03-25T02:16:54;7.6;71.2
78731;SHT31;68055;51.978;5.658;2024-03-25T02:19:24;7.6;71.1
78731;SHT31;68055;51.978;5.658;2024-03-25T02:21:55;7.6;71.3
78731;SHT31;68055;51.978;5.658;2024-03-25T02:24:26;7.6;71.2
78731;SHT31;68055;51.978;5.658;2024-03-25T02:26:56;7.5;71.4
78731;SHT31;68055;51.978;5.658;2024-03-25T02:29:34;7.5;71.0
78731;SHT31;68055;51.978;5.658;2024-03-25T02:32:03;7.5;70.9
78731;SHT31;68055;51.978;5.658;2024-03-25T02:34:34;7.5;70.8
78731;SHT31;68055;51.978;5.658;2024-03-25T02:37:03;7.5;71.1
78731;SHT31;68055;51.978;5.658;2024-03-25T02:39:32;7.5;71.3
78731;SHT31;68055;51.978;5.658;2024-03-25T02:42:02;7.5;71.4
78731;SHT31;68055;51.978;5.658;2024-03-25T02:44:31;7.5;71.2
78731;SHT31;68055;51.978;5.658;2024-03-25T02:47:01;7.5;71.5
78731;SHT31;68055;51.978;5.658;2024-03-25T02:49:30;7.5;71.0
78731;SHT31;68055;51.978;5.658;2024-03-25T02:51:58;7.5;71.1
78731;SHT31;68055;51.978;5.658;2024-03-25T02:54:29;7.5;71.1
78731;SHT31;68055;51.978;5.658;2024-03-25T02:56:58;7.5;71.1
78731;SHT31;68055;51.978;5.658;2024-03-25T02:59:26;7.5;70.8
78731;SHT31;68055;51.978;5.658;2024-03-25T03:01:54;7.5;71.1
78731;SHT31;68055;51.978;5.658;2024-03-25T03:04:23;7.5;71.2
78731;SHT31;68055;51.978;5.658;2024-03-25T03:06:53;7.4;70.9
78731;SHT31;68055;51.978;5.658;2024-03-25T03:09:22;7.4;70.7
78731;SHT31;68055;51.978;5.658;2024-03-25T03:11:50;7.4;70.6
78731;SHT31;68055;51.978;5.658;2024-03-25T03:14:18;7.4;70.7
78731;SHT31;68055;51.978;5.658;2024-03-25T03:16:47;7.4;70.6
78731;SHT31;68055;51.978;5.658;2024-03-25T03:19:15;7.4;70.9
78731;SHT31;68055;51.978;5.658;2024-03-25T03:21:44;7.4;71.0
78731;SHT31;68055;51.978;5.658;2024-03-25T03:24:12;7.4;70.7
78731;SHT31;68055;51.978;5.658;2024-03-25T03:26:41;7.4;70.6
78731;SHT31;68055;51.978;5.658;2024-03-25T03:29:09;7.4;70.7
78731;SHT31;68055;51.978;5.658;2024-03-25T03:31:38;7.4;70.4
78731;SHT31;68055;51.978;5.658;2024-03-25T03:34:06;7.4;70.7
78731;SHT31;68055;51.978;5.658;2024-03-25T03:36:35;7.4;70.8
78731;SHT31;68055;51.978;5.658;2024-03-25T03:39:03;7.4;70.8
78731;SHT31;68055;51.978;5.658;2024-03-25T03:41:32;7.4;71.0
78731;SHT31;68055;51.978;5.658;2024-03-25T03:44:00;7.4;71.3
78731;SHT31;68055;51.978;5.658;2024-03-25T03:46:29;7.4;70.5
78731;SHT31;68055;51.978;5.658;2024-03-25T03:48:58;7.4;70.8
78731;SHT31;68055;51.978;5.658;2024-03-25T03:51:26;7.4;70.5
78731;SHT31;68055;51.978;5.658;2024-03-25T03:53:55;7.4;71.1
78731;SHT31;68055;51.978;5.658;2024-03-25T03:56:24;7.4;70.9
78731;SHT31;68055;51.978;5.658;2024-03-25T03:58:52;7.3;70.6
78731;SHT31;68055;51.978;5.658;2024-03-25T04:01:21;7.3;70.2
78731;SHT31;68055;51.978;5.658;2024-03-25T04:03:49;7.3;70.4
78731;SHT31;68055;51.978;5.658;2024-03-25T04:06:18;7.3;69.9
78731;SHT31;68055;51.978;5.658;2024-03-25T04:08:46;7.3;70.1
78731;SHT31;68055;51.978;5.658;2024-03-25T04:11:17;7.3;70.0
78731;SHT31;68055;51.978;5.658;2024-03-25T04:13:46;7.3;70.1
78731;SHT31;68055;51.978;5.658;2024-03-25T04:16:17;7.3;69.7
78731;SHT31;68055;51.978;5.658;2024-03-25T04:18:47;7.2;69.9
78731;SHT31;68055;51.978;5.658;2024-03-25T04:21:17;7.2;70.3
78731;SHT31;68055;51.978;5.658;2024-03-25T04:23:47;7.2;69.7
78731;SHT31;68055;51.978;5.658;2024-03-25T04:26:15;7.2;69.7
78731;SHT31;68055;51.978;5.658;2024-03-25T04:28:44;7.2;70.5
78731;SHT31;68055;51.978;5.658;2024-03-25T04:31:13;7.2;71.0
78731;SHT31;68055;51.978;5.658;2024-03-25T04:33:43;7.1;70.9
78731;SHT31;68055;51.978;5.658;2024-03-25T04:36:11;7.1;70.5
78731;SHT31;68055;51.978;5.658;2024-03-25T04:38:40;7.1;70.2
78731;SHT31;68055;51.978;5.658;2024-03-25T04:41:08;7.1;70.4
78731;SHT31;68055;51.978;5.658;2024-03-25T04:43:37;7.1;70.1
78731;SHT31;68055;51.978;5.658;2024-03-25T04:46:06;7.0;70.8
78731;SHT31;68055;51.978;5.658;2024-03-25T04:48:34;7.0;69.9
78731;SHT31;68055;51.978;5.658;2024-03-25T04:51:03;7.0;70.5
78731;SHT31;68055;51.978;5.658;2024-03-25T04:53:32;7.0;70.3
78731;SHT31;68055;51.978;5.658;2024-03-25T04:56:00;7.0;70.3
78731;SHT31;68055;51.978;5.658;2024-03-25T04:58:30;7.0;70.6
78731;SHT31;68055;51.978;5.658;2024-03-25T05:00:58;6.9;70.6
78731;SHT31;68055;51.978;5.658;2024-03-25T05:03:27;6.9;70.6
78731;SHT31;68055;51.978;5.658;2024-03-25T05:05:55;6.9;70.4
78731;SHT31;68055;51.978;5.658;2024-03-25T05:08:24;6.9;70.4
78731;SHT31;68055;51.978;5.658;2024-03-25T05:10:53;6.9;70.0
78731;SHT31;68055;51.978;5.658;2024-03-25T05:13:21;6.8;69.9
78731;SHT31;68055;51.978;5.658;2024-03-25T05:15:52;6.8;70.0
78731;SHT31;68055;51.978;5.658;2024-03-25T05:18:21;6.8;70.2
78731;SHT31;68055;51.978;5.658;2024-03-25T05:20:49;6.8;70.4
78731;SHT31;68055;51.978;5.658;2024-03-25T05:23:18;6.8;70.5
78731;SHT31;68055;51.978;5.658;2024-03-25T05:25:46;6.7;70.6
78731;SHT31;68055;51.978;5.658;2024-03-25T05:28:15;6.7;71.2
78731;SHT31;68055;51.978;5.658;2024-03-25T05:30:43;6.7;70.8
78731;SHT31;68055;51.978;5.658;2024-03-25T05:33:12;6.7;71.3
78731;SHT31;68055;51.978;5.658;2024-03-25T05:35:40;6.7;71.6
78731;SHT31;68055;51.978;5.658;2024-03-25T05:38:09;6.7;71.4
78731;SHT31;68055;51.978;5.658;2024-03-25T05:40:38;6.7;71.3
78731;SHT31;68055;51.978;5.658;2024-03-25T05:43:07;6.7;71.8
78731;SHT31;68055;51.978;5.658;2024-03-25T05:45:35;6.7;72.3
78731;SHT31;68055;51.978;5.658;2024-03-25T05:48:04;6.7;72.2
78731;SHT31;68055;51.978;5.658;2024-03-25T05:50:33;6.7;72.0
78731;SHT31;68055;51.978;5.658;2024-03-25T05:53:01;6.7;72.1
78731;SHT31;68055;51.978;5.658;2024-03-25T05:55:30;6.7;72.1
78731;SHT31;68055;51.978;5.658;2024-03-25T05:57:58;6.7;72.5
78731;SHT31;68055;51.978;5.658;2024-03-25T06:00:28;6.7;72.8
78731;SHT31;68055;51.978;5.658;2024-03-25T06:02:57;6.8;72.3
78731;SHT31;68055;51.978;5.658;2024-03-25T06:05:27;6.8;72.3
78731;SHT31;68055;51.978;5.658;2024-03-25T06:07:56;6.8;72.4
78731;SHT31;68055;51.978;5.658;2024-03-25T06:10:24;6.8;72.0
78731;SHT31;68055;51.978;5.658;2024-03-25T06:12:52;6.8;72.2
78731;SHT31;68055;51.978;5.658;2024-03-25T06:15:21;6.8;72.2
78731;SHT31;68055;51.978;5.658;2024-03-25T06:17:49;6.9;72.4
78731;SHT31;68055;51.978;5.658;2024-03-25T06:20:18;6.9;72.5
78731;SHT31;68055;51.978;5.658;2024-03-25T06:22:47;6.9;72.6
78731;SHT31;68055;51.978;5.658;2024-03-25T06:25:17;6.9;72.4
78731;SHT31;68055;51.978;5.658;2024-03-25T06:27:45;7.0;72.4
78731;SHT31;68055;51.978;5.658;2024-03-25T06:30:14;7.0;72.5
78731;SHT31;68055;51.978;5.658;2024-03-25T06:32:59;7.0;72.6
78731;SHT31;68055;51.978;5.658;2024-03-25T06:35:44;7.1;72.9
78731;SHT31;68055;51.978;5.658;2024-03-25T06:38:15;7.1;72.8
78731;SHT31;68055;51.978;5.658;2024-03-25T06:40:45;7.2;72.9
78731;SHT31;68055;51.978;5.658;2024-03-25T06:43:14;7.2;73.1
78731;SHT31;68055;51.978;5.658;2024-03-25T06:45:43;7.3;73.7
78731;SHT31;68055;51.978;5.658;2024-03-25T06:48:11;7.3;73.9
78731;SHT31;68055;51.978;5.658;2024-03-25T06:50:41;7.4;74.3
78731;SHT31;68055;51.978;5.658;2024-03-25T06:53:09;7.5;74.8
78731;SHT31;68055;51.978;5.658;2024-03-25T06:55:38;7.6;74.8
78731;SHT31;68055;51.978;5.658;2024-03-25T06:58:06;7.8;75.2
78731;SHT31;68055;51.978;5.658;2024-03-25T07:00:36;7.9;75.2
78731;SHT31;68055;51.978;5.658;2024-03-25T07:03:05;8.1;74.7
78731;SHT31;68055;51.978;5.658;2024-03-25T07:05:33;8.3;74.3
78731;SHT31;68055;51.978;5.658;2024-03-25T07:08:01;8.5;74.2
78731;SHT31;68055;51.978;5.658;2024-03-25T07:10:31;8.6;73.8
78731;SHT31;68055;51.978;5.658;2024-03-25T07:13:00;8.8;73.3
78731;SHT31;68055;51.978;5.658;2024-03-25T07:15:29;9.0;72.4
78731;SHT31;68055;51.978;5.658;2024-03-25T07:17:57;9.1;72.1
78731;SHT31;68055;51.978;5.658;2024-03-25T07:20:26;9.3;72.3
78731;SHT31;68055;51.978;5.658;2024-03-25T07:22:55;9.5;72.3
78731;SHT31;68055;51.978;5.658;2024-03-25T07:25:24;9.7;71.6
78731;SHT31;68055;51.978;5.658;2024-03-25T07:27:53;9.9;71.1
78731;SHT31;68055;51.978;5.658;2024-03-25T07:30:21;10.2;70.2
78731;SHT31;68055;51.978;5.658;2024-03-25T07:32:54;10.4;70.1
78731;SHT31;68055;51.978;5.658;2024-03-25T07:35:23;10.6;69.5
78731;SHT31;68055;51.978;5.658;2024-03-25T07:37:52;10.8;67.9
78731;SHT31;68055;51.978;5.658;2024-03-25T07:40:21;11.0;67.7
78731;SHT31;68055;51.978;5.658;2024-03-25T07:42:50;11.2;67.6
78731;SHT31;68055;51.978;5.658;2024-03-25T07:45:18;11.3;66.8
78731;SHT31;68055;51.978;5.658;2024-03-25T07:47:47;11.4;66.0
78731;SHT31;68055;51.978;5.658;2024-03-25T07:50:17;11.5;65.4
78731;SHT31;68055;51.978;5.658;2024-03-25T07:52:46;11.6;65.7
78731;SHT31;68055;51.978;5.658;2024-03-25T07:55:15;11.7;65.3
78731;SHT31;68055;51.978;5.658;2024-03-25T07:57:43;11.8;65.3
78731;SHT31;68055;51.978;5.658;2024-03-25T08:00:13;11.9;65.0
78731;SHT31;68055;51.978;5.658;2024-03-25T08:02:41;12.0;64.7
78731;SHT31;68055;51.978;5.658;2024-03-25T08:05:10;12.1;63.7
78731;SHT31;68055;51.978;5.658;2024-03-25T08:07:38;12.2;63.8
78731;SHT31;68055;51.978;5.658;2024-03-25T08:10:07;12.2;63.4
78731;SHT31;68055;51.978;5.658;2024-03-25T08:12:36;12.3;62.9
78731;SHT31;68055;51.978;5.658;2024-03-25T08:15:05;12.4;63.4
78731;SHT31;68055;51.978;5.658;2024-03-25T08:17:34;12.5;62.8
78731;SHT31;68055;51.978;5.658;2024-03-25T08:20:03;12.6;62.5
78731;SHT31;68055;51.978;5.658;2024-03-25T08:22:32;12.7;63.0
78731;SHT31;68055;51.978;5.658;2024-03-25T08:25:00;12.8;62.3
78731;SHT31;68055;51.978;5.658;2024-03-25T08:27:30;12.9;62.3
78731;SHT31;68055;51.978;5.658;2024-03-25T08:29:59;13.1;61.0
78731;SHT31;68055;51.978;5.658;2024-03-25T08:32:27;13.2;61.0
78731;SHT31;68055;51.978;5.658;2024-03-25T08:34:55;13.3;60.6
78731;SHT31;68055;51.978;5.658;2024-03-25T08:37:24;13.5;60.9
78731;SHT31;68055;51.978;5.658;2024-03-25T08:39:52;13.6;60.6
78731;SHT31;68055;51.978;5.658;2024-03-25T08:42:21;13.7;59.8
78731;SHT31;68055;51.978;5.658;2024-03-25T08:44:49;13.9;60.4
78731;SHT31;68055;51.978;5.658;2024-03-25T08:47:18;14.0;59.1
78731;SHT31;68055;51.978;5.658;2024-03-25T08:49:46;14.2;59.9
78731;SHT31;68055;51.978;5.658;2024-03-25T08:52:15;14.3;58.9
78731;SHT31;68055;51.978;5.658;2024-03-25T08:54:43;14.5;58.0
78731;SHT31;68055;51.978;5.658;2024-03-25T08:57:12;14.6;57.5
78731;SHT31;68055;51.978;5.658;2024-03-25T08:59:41;14.8;57.3
78731;SHT31;68055;51.978;5.658;2024-03-25T09:02:09;14.9;56.5
78731;SHT31;68055;51.978;5.658;2024-03-25T09:04:37;15.0;54.1
78731;SHT31;68055;51.978;5.658;2024-03-25T09:07:06;15.1;55.7
78731;SHT31;68055;51.978;5.658;2024-03-25T09:09:34;15.3;56.8
78731;SHT31;68055;51.978;5.658;2024-03-25T09:13:22;15.5;56.1
78731;SHT31;68055;51.978;5.658;2024-03-25T09:15:50;15.8;52.6
78731;SHT31;68055;51.978;5.658;2024-03-25T09:18:20;16.0;52.8
78731;SHT31;68055;51.978;5.658;2024-03-25T09:20:48;16.2;53.0
78731;SHT31;68055;51.978;5.658;2024-03-25T09:23:17;16.4;50.8
78731;SHT31;68055;51.978;5.658;2024-03-25T09:25:54;16.6;49.8
78731;SHT31;68055;51.978;5.658;2024-03-25T09:28:23;16.8;49.9
78731;SHT31;68055;51.978;5.658;2024-03-25T09:30:51;17.0;49.3
78731;SHT31;68055;51.978;5.658;2024-03-25T09:33:20;17.2;48.2
78731;SHT31;68055;51.978;5.658;2024-03-25T09:35:49;17.3;48.3
78731;SHT31;68055;51.978;5.658;2024-03-25T09:38:18;17.5;47.2
78731;SHT31;68055;51.978;5.658;2024-03-25T09:40:46;17.6;46.3
78731;SHT31;68055;51.978;5.658;2024-03-25T09:43:23;17.7;47.0
78731;SHT31;68055;51.978;5.658;2024-03-25T09:45:54;17.9;47.5
78731;SHT31;68055;51.978;5.658;2024-03-25T09:48:25;18.0;46.0
78731;SHT31;68055;51.978;5.658;2024-03-25T09:50:55;18.1;44.7
78731;SHT31;68055;51.978;5.658;2024-03-25T09:53:24;18.2;44.7
78731;SHT31;68055;51.978;5.658;2024-03-25T09:55:54;18.2;44.7
78731;SHT31;68055;51.978;5.658;2024-03-25T09:58:25;18.2;45.2
78731;SHT31;68055;51.978;5.658;2024-03-25T10:00:55;18.1;44.5
78731;SHT31;68055;51.978;5.658;2024-03-25T10:03:26;18.0;45.2
78731;SHT31;68055;51.978;5.658;2024-03-25T10:05:55;17.9;43.4
78731;SHT31;68055;51.978;5.658;2024-03-25T10:08:23;17.8;43.7
78731;SHT31;68055;51.978;5.658;2024-03-25T10:10:56;17.6;45.1
78731;SHT31;68055;51.978;5.658;2024-03-25T10:13:26;17.5;45.2
78731;SHT31;68055;51.978;5.658;2024-03-25T10:15:55;17.5;44.3
78731;SHT31;68055;51.978;5.658;2024-03-25T10:18:24;17.4;45.9
78731;SHT31;68055;51.978;5.658;2024-03-25T10:20:53;17.3;45.8
78731;SHT31;68055;51.978;5.658;2024-03-25T10:23:23;17.2;45.6
78731;SHT31;68055;51.978;5.658;2024-03-25T10:25:53;17.1;44.9
78731;SHT31;68055;51.978;5.658;2024-03-25T10:28:22;17.1;45.1
78731;SHT31;68055;51.978;5.658;2024-03-25T10:30:50;17.0;43.9
78731;SHT31;68055;51.978;5.658;2024-03-25T10:33:19;17.0;45.5
78731;SHT31;68055;51.978;5.658;2024-03-25T10:35:50;17.0;44.5
78731;SHT31;68055;51.978;5.658;2024-03-25T10:38:21;16.9;44.7
78731;SHT31;68055;51.978;5.658;2024-03-25T10:40:55;16.9;45.1
78731;SHT31;68055;51.978;5.658;2024-03-25T10:43:30;16.9;43.9
78731;SHT31;68055;51.978;5.658;2024-03-25T10:46:00;16.8;45.4
78731;SHT31;68055;51.978;5.658;2024-03-25T10:48:31;16.8;45.4
78731;SHT31;68055;51.978;5.658;2024-03-25T10:51:04;16.8;44.2
78731;SHT31;68055;51.978;5.658;2024-03-25T10:53:37;16.8;44.4
78731;SHT31;68055;51.978;5.658;2024-03-25T10:56:09;16.8;44.0
78731;SHT31;68055;51.978;5.658;2024-03-25T10:58:39;16.8;44.5
78731;SHT31;68055;51.978;5.658;2024-03-25T11:01:08;16.8;44.1
78731;SHT31;68055;51.978;5.658;2024-03-25T11:03:38;16.8;44.1
78731;SHT31;68055;51.978;5.658;2024-03-25T11:06:07;16.8;43.8
78731;SHT31;68055;51.978;5.658;2024-03-25T11:08:36;16.8;43.0
78731;SHT31;68055;51.978;5.658;2024-03-25T11:11:05;16.7;42.9
78731;SHT31;68055;51.978;5.658;2024-03-25T11:13:34;16.7;43.1
78731;SHT31;68055;51.978;5.658;2024-03-25T11:16:02;16.7;43.8
78731;SHT31;68055;51.978;5.658;2024-03-25T11:18:31;16.7;42.7
78731;SHT31;68055;51.978;5.658;2024-03-25T11:21:04;16.7;43.4
78731;SHT31;68055;51.978;5.658;2024-03-25T11:23:40;16.7;43.5
78731;SHT31;68055;51.978;5.658;2024-03-25T11:26:19;16.7;43.8
78731;SHT31;68055;51.978;5.658;2024-03-25T11:28:49;16.7;42.0
78731;SHT31;68055;51.978;5.658;2024-03-25T11:31:20;16.7;43.3
78731;SHT31;68055;51.978;5.658;2024-03-25T11:33:50;16.6;44.0
78731;SHT31;68055;51.978;5.658;2024-03-25T11:36:20;16.6;42.9
78731;SHT31;68055;51.978;5.658;2024-03-25T11:38:59;16.6;41.7
78731;SHT31;68055;51.978;5.658;2024-03-25T11:41:32;16.6;43.4
78731;SHT31;68055;51.978;5.658;2024-03-25T11:44:02;16.6;42.6
78731;SHT31;68055;51.978;5.658;2024-03-25T11:46:30;16.6;43.0
78731;SHT31;68055;51.978;5.658;2024-03-25T11:48:59;16.5;42.6
78731;SHT31;68055;51.978;5.658;2024-03-25T11:51:28;16.5;42.1
78731;SHT31;68055;51.978;5.658;2024-03-25T11:53:56;16.5;43.9
78731;SHT31;68055;51.978;5.658;2024-03-25T11:56:26;16.5;42.8
78731;SHT31;68055;51.978;5.658;2024-03-25T11:58:56;16.4;42.6
78731;SHT31;68055;51.978;5.658;2024-03-25T12:01:25;16.4;42.4
78731;SHT31;68055;51.978;5.658;2024-03-25T12:03:54;16.4;43.0
78731;SHT31;68055;51.978;5.658;2024-03-25T12:06:22;16.3;42.4
78731;SHT31;68055;51.978;5.658;2024-03-25T12:08:51;16.3;42.4
78731;SHT31;68055;51.978;5.658;2024-03-25T12:13:19;16.3;42.8
78731;SHT31;68055;51.978;5.658;2024-03-25T12:15:50;16.2;42.2
78731;SHT31;68055;51.978;5.658;2024-03-25T12:18:20;16.2;42.0
78731;SHT31;68055;51.978;5.658;2024-03-25T12:20:49;16.1;42.3
78731;SHT31;68055;51.978;5.658;2024-03-25T12:23:20;16.1;42.7
78731;SHT31;68055;51.978;5.658;2024-03-25T12:25:52;16.0;43.2
78731;SHT31;68055;51.978;5.658;2024-03-25T12:28:21;16.0;43.3
78731;SHT31;68055;51.978;5.658;2024-03-25T12:30:53;16.0;43.9
78731;SHT31;68055;51.978;5.658;2024-03-25T12:33:23;15.9;43.6
78731;SHT31;68055;51.978;5.658;2024-03-25T12:35:53;15.9;41.3
78731;SHT31;68055;51.978;5.658;2024-03-25T12:38:26;15.9;42.1
78731;SHT31;68055;51.978;5.658;2024-03-25T12:41:06;15.8;40.0
78731;SHT31;68055;51.978;5.658;2024-03-25T12:43:35;15.8;42.4
78731;SHT31;68055;51.978;5.658;2024-03-25T12:46:04;15.7;41.3
78731;SHT31;68055;51.978;5.658;2024-03-25T12:48:35;15.7;41.5
78731;SHT31;68055;51.978;5.658;2024-03-25T12:51:04;15.6;41.5
78731;SHT31;68055;51.978;5.658;2024-03-25T12:53:33;15.6;41.4
78731;SHT31;68055;51.978;5.658;2024-03-25T12:56:02;15.6;40.6
78731;SHT31;68055;51.978;5.658;2024-03-25T12:58:30;15.6;41.1
78731;SHT31;68055;51.978;5.658;2024-03-25T13:00:59;15.5;40.7
78731;SHT31;68055;51.978;5.658;2024-03-25T13:03:28;15.5;40.6
78731;SHT31;68055;51.978;5.658;2024-03-25T13:05:56;15.5;39.7
78731;SHT31;68055;51.978;5.658;2024-03-25T13:08:26;15.5;40.6
78731;SHT31;68055;51.978;5.658;2024-03-25T13:10:54;15.4;40.6
78731;SHT31;68055;51.978;5.658;2024-03-25T13:13:23;15.4;40.8
78731;SHT31;68055;51.978;5.658;2024-03-25T13:15:52;15.4;41.2
78731;SHT31;68055;51.978;5.658;2024-03-25T13:18:20;15.4;41.4
78731;SHT31;68055;51.978;5.658;2024-03-25T13:20:50;15.4;42.0
78731;SHT31;68055;51.978;5.658;2024-03-25T13:23:19;15.4;40.6
78731;SHT31;68055;51.978;5.658;2024-03-25T13:25:49;15.5;40.2
78731;SHT31;68055;51.978;5.658;2024-03-25T13:28:18;15.5;40.2
78731;SHT31;68055;51.978;5.658;2024-03-25T13:30:46;15.5;40.2
78731;SHT31;68055;51.978;5.658;2024-03-25T13:33:15;15.5;39.4
78731;SHT31;68055;51.978;5.658;2024-03-25T13:35:43;15.5;40.5
78731;SHT31;68055;51.978;5.658;2024-03-25T13:38:13;15.5;40.7
78731;SHT31;68055;51.978;5.658;2024-03-25T13:40:42;15.5;40.5
78731;SHT31;68055;51.978;5.658;2024-03-25T13:43:11;15.6;40.2
78731;SHT31;68055;51.978;5.658;2024-03-25T13:45:48;15.6;39.0
78731;SHT31;68055;51.978;5.658;2024-03-25T13:48:17;15.6;39.6
78731;SHT31;68055;51.978;5.658;2024-03-25T13:50:45;15.6;39.5
78731;SHT31;68055;51.978;5.658;2024-03-25T13:53:14;15.7;39.8
78731;SHT31;68055;51.978;5.658;2024-03-25T13:55:45;15.7;39.6
78731;SHT31;68055;51.978;5.658;2024-03-25T13:58:13;15.7;39.5
78731;SHT31;68055;51.978;5.658;2024-03-25T14:00:42;15.7;38.4
78731;SHT31;68055;51.978;5.658;2024-03-25T14:03:11;15.8;39.8
78731;SHT31;68055;51.978;5.658;2024-03-25T14:05:41;15.8;38.7
78731;SHT31;68055;51.978;5.658;2024-03-25T14:08:10;15.8;38.6
78731;SHT31;68055;51.978;5.658;2024-03-25T14:10:39;15.8;38.3
78731;SHT31;68055;51.978;5.658;2024-03-25T14:13:08;15.8;39.1
78731;SHT31;68055;51.978;5.658;2024-03-25T14:15:38;15.8;39.0
78731;SHT31;68055;51.978;5.658;2024-03-25T14:18:09;15.9;39.1
78731;SHT31;68055;51.978;5.658;2024-03-25T14:20:37;15.9;36.8
78731;SHT31;68055;51.978;5.658;2024-03-25T14:23:08;15.9;36.5
78731;SHT31;68055;51.978;5.658;2024-03-25T14:25:37;15.9;37.1
78731;SHT31;68055;51.978;5.658;2024-03-25T14:28:08;15.9;36.8
78731;SHT31;68055;51.978;5.658;2024-03-25T14:30:37;15.9;37.4
78731;SHT31;68055;51.978;5.658;2024-03-25T14:33:05;15.8;36.4
78731;SHT31;68055;51.978;5.658;2024-03-25T14:35:34;15.8;37.7
78731;SHT31;68055;51.978;5.658;2024-03-25T14:38:02;15.8;35.6
78731;SHT31;68055;51.978;5.658;2024-03-25T14:40:31;15.8;37.7
78731;SHT31;68055;51.978;5.658;2024-03-25T14:43:01;15.7;38.4
78731;SHT31;68055;51.978;5.658;2024-03-25T14:45:30;15.7;37.9
78731;SHT31;68055;51.978;5.658;2024-03-25T14:47:58;15.7;38.1
78731;SHT31;68055;51.978;5.658;2024-03-25T14:50:27;15.7;38.0
78731;SHT31;68055;51.978;5.658;2024-03-25T14:52:55;15.7;37.8
78731;SHT31;68055;51.978;5.658;2024-03-25T14:55:24;15.6;38.2
78731;SHT31;68055;51.978;5.658;2024-03-25T14:57:52;15.6;38.1
78731;SHT31;68055;51.978;5.658;2024-03-25T15:00:20;15.5;38.9
78731;SHT31;68055;51.978;5.658;2024-03-25T15:02:51;15.5;38.7
78731;SHT31;68055;51.978;5.658;2024-03-25T15:05:20;15.5;36.3
78731;SHT31;68055;51.978;5.658;2024-03-25T15:07:48;15.4;35.8
78731;SHT31;68055;51.978;5.658;2024-03-25T15:10:17;15.4;36.5
78731;SHT31;68055;51.978;5.658;2024-03-25T15:12:47;15.4;36.2
78731;SHT31;68055;51.978;5.658;2024-03-25T15:15:15;15.4;36.6
78731;SHT31;68055;51.978;5.658;2024-03-25T15:17:44;15.3;37.0
78731;SHT31;68055;51.978;5.658;2024-03-25T15:20:15;15.3;36.9
78731;SHT31;68055;51.978;5.658;2024-03-25T15:22:43;15.2;36.0
78731;SHT31;68055;51.978;5.658;2024-03-25T15:25:12;15.2;35.2
78731;SHT31;68055;51.978;5.658;2024-03-25T15:27:41;15.2;36.9
78731;SHT31;68055;51.978;5.658;2024-03-25T15:30:10;15.1;37.9
78731;SHT31;68055;51.978;5.658;2024-03-25T15:32:39;15.1;37.5
78731;SHT31;68055;51.978;5.658;2024-03-25T15:35:08;15.1;38.1
78731;SHT31;68055;51.978;5.658;2024-03-25T15:37:36;15.0;38.2
78731;SHT31;68055;51.978;5.658;2024-03-25T15:40:06;15.0;38.2
78731;SHT31;68055;51.978;5.658;2024-03-25T15:42:40;15.0;37.9
78731;SHT31;68055;51.978;5.658;2024-03-25T15:45:08;14.9;36.5
78731;SHT31;68055;51.978;5.658;2024-03-25T15:47:37;14.9;38.0
78731;SHT31;68055;51.978;5.658;2024-03-25T15:50:06;14.9;37.1
78731;SHT31;68055;51.978;5.658;2024-03-25T15:52:35;14.9;37.8
78731;SHT31;68055;51.978;5.658;2024-03-25T15:55:03;14.9;39.0
78731;SHT31;68055;51.978;5.658;2024-03-25T15:57:32;14.9;39.0
78731;SHT31;68055;51.978;5.658;2024-03-25T16:00:00;14.8;39.6
78731;SHT31;68055;51.978;5.658;2024-03-25T16:02:31;14.8;38.3
78731;SHT31;68055;51.978;5.658;2024-03-25T16:04:59;14.8;38.1
78731;SHT31;68055;51.978;5.658;2024-03-25T16:07:30;14.8;39.3
78731;SHT31;68055;51.978;5.658;2024-03-25T16:09:58;14.8;39.1
78731;SHT31;68055;51.978;5.658;2024-03-25T16:12:27;14.8;39.6
78731;SHT31;68055;51.978;5.658;2024-03-25T16:14:55;14.7;39.1
78731;SHT31;68055;51.978;5.658;2024-03-25T16:17:24;14.7;39.1
78731;SHT31;68055;51.978;5.658;2024-03-25T16:19:54;14.7;39.2
78731;SHT31;68055;51.978;5.658;2024-03-25T16:22:23;14.7;40.0
78731;SHT31;68055;51.978;5.658;2024-03-25T16:24:52;14.6;41.0